createdAt,value
2023-02-15T00:01:41.936Z,21.63
2023-02-15T00:04:10.800Z,21.70
2023-02-15T00:06:39.095Z,21.30
2023-02-15T00:09:07.330Z,21.43
2023-02-15T00:11:50.802Z,21.83
2023-02-15T00:14:21.355Z,22.90
2023-02-15T00:16:50.438Z,22.00
2023-02-15T00:19:19.387Z,20.27
2023-02-15T00:21:48.871Z,17.97
2023-02-15T00:24:18.399Z,19.20
2023-02-15T00:26:46.810Z,16.70
2023-02-15T00:29:15.768Z,17.83
2023-02-15T00:31:45.569Z,18.80
2023-02-15T00:34:14.810Z,19.20
2023-02-15T00:36:43.108Z,19.50
2023-02-15T00:39:11.370Z,18.37
2023-02-15T00:41:39.609Z,19.10
2023-02-15T00:44:07.856Z,19.47
2023-02-15T00:46:36.187Z,18.97
2023-02-15T00:49:05.911Z,17.73
2023-02-15T00:51:34.302Z,18.30
2023-02-15T00:54:02.542Z,16.73
2023-02-15T00:56:30.797Z,16.70
2023-02-15T00:58:59.021Z,18.10
2023-02-15T01:01:27.505Z,17.07
2023-02-15T01:03:55.766Z,17.73
2023-02-15T01:06:25.416Z,14.83
2023-02-15T01:08:53.662Z,16.27
2023-02-15T01:11:23.862Z,16.67
2023-02-15T01:13:52.204Z,16.43
2023-02-15T01:16:20.498Z,17.67
2023-02-15T01:18:48.798Z,16.10
2023-02-15T01:21:18.360Z,17.43
2023-02-15T01:23:48.016Z,17.10
2023-02-15T01:26:16.499Z,16.37
2023-02-15T01:28:44.731Z,17.80
2023-02-15T01:31:13.804Z,17.97
2023-02-15T01:33:42.151Z,18.63
2023-02-15T01:36:10.409Z,18.00
2023-02-15T01:38:38.676Z,18.07
2023-02-15T01:41:24.508Z,19.17
2023-02-15T01:43:54.086Z,19.63
2023-02-15T01:46:25.052Z,19.40
2023-02-15T01:48:54.724Z,19.20
2023-02-15T01:51:24.374Z,19.60
2023-02-15T01:53:53.948Z,19.20
2023-02-15T01:56:24.531Z,19.60
2023-02-15T01:58:53.464Z,18.60
2023-02-15T02:01:21.745Z,20.00
2023-02-15T02:03:55.515Z,19.13
2023-02-15T02:06:25.347Z,20.10
2023-02-15T02:08:54.729Z,19.43
2023-02-15T02:11:24.359Z,19.57
2023-02-15T02:13:53.010Z,19.37
2023-02-15T02:16:24.274Z,16.07
2023-02-15T02:19:01.049Z,18.17
2023-02-15T02:22:11.781Z,18.47
2023-02-15T02:25:21.990Z,17.83
2023-02-15T02:27:53.048Z,18.07
2023-02-15T02:30:56.983Z,16.93
2023-02-15T02:33:38.710Z,19.20
2023-02-15T02:36:12.031Z,18.30
2023-02-15T02:38:47.434Z,16.17
2023-02-15T02:41:19.272Z,16.40
2023-02-15T02:43:50.993Z,18.90
2023-02-15T02:46:22.244Z,17.17
2023-02-15T02:48:52.026Z,18.10
2023-02-15T02:51:23.130Z,18.97
2023-02-15T02:53:53.765Z,19.23
2023-02-15T02:56:25.089Z,18.30
2023-02-15T02:58:56.370Z,19.27
2023-02-15T03:01:26.860Z,17.03
2023-02-15T03:03:58.236Z,16.93
2023-02-15T03:06:29.518Z,16.97
2023-02-15T03:08:59.533Z,17.70
2023-02-15T03:11:27.855Z,18.73
2023-02-15T03:13:56.115Z,18.03
2023-02-15T03:16:30.378Z,16.43
2023-02-15T03:19:02.138Z,17.80
2023-02-15T03:21:34.403Z,17.73
2023-02-15T03:24:05.535Z,16.50
2023-02-15T03:26:33.770Z,17.83
2023-02-15T03:29:02.026Z,16.73
2023-02-15T03:31:31.724Z,17.23
2023-02-15T03:34:03.193Z,17.70
2023-02-15T03:36:33.438Z,17.63
2023-02-15T03:39:04.501Z,16.10
2023-02-15T03:41:36.400Z,16.67
2023-02-15T03:44:07.059Z,16.83
2023-02-15T03:46:35.982Z,17.37
2023-02-15T03:49:08.823Z,16.53
2023-02-15T03:51:39.225Z,17.50
2023-02-15T03:54:09.697Z,16.97
2023-02-15T03:56:38.655Z,17.67
2023-02-15T03:59:24.322Z,17.03
2023-02-15T04:02:01.417Z,16.07
2023-02-15T04:04:34.416Z,17.60
2023-02-15T04:07:02.743Z,16.97
2023-02-15T04:09:48.510Z,16.97
2023-02-15T04:12:16.767Z,17.40
2023-02-15T04:15:02.435Z,16.80
2023-02-15T04:17:30.753Z,17.83
2023-02-15T04:20:17.702Z,17.83
2023-02-15T04:23:03.082Z,17.80
2023-02-15T04:25:31.401Z,18.93
2023-02-15T04:27:59.685Z,19.30
2023-02-15T04:30:28.125Z,18.60
2023-02-15T04:32:57.612Z,19.13
2023-02-15T04:35:27.825Z,17.47
2023-02-15T04:37:56.884Z,18.80
2023-02-15T04:40:25.282Z,19.63
2023-02-15T04:42:53.527Z,19.27
2023-02-15T04:45:21.798Z,19.63
2023-02-15T04:47:50.459Z,20.53
2023-02-15T04:58:22.070Z,18.13
2023-02-15T05:00:50.356Z,18.47
2023-02-15T05:03:19.642Z,20.00
2023-02-15T05:05:48.026Z,20.70
2023-02-15T05:08:16.245Z,21.00
2023-02-15T05:10:44.551Z,20.33
2023-02-15T05:13:12.821Z,19.87
2023-02-15T05:15:44.854Z,19.73
2023-02-15T05:18:13.196Z,21.23
2023-02-15T05:20:41.484Z,21.87
2023-02-15T05:23:09.727Z,21.13
2023-02-15T05:25:55.114Z,21.37
2023-02-15T05:28:23.448Z,21.97
2023-02-15T05:30:53.922Z,23.10
2023-02-15T05:33:22.472Z,25.33
2023-02-15T05:35:50.732Z,25.43
2023-02-15T05:38:18.959Z,24.60
2023-02-15T05:40:49.201Z,24.70
2023-02-15T05:43:18.329Z,25.13
2023-02-15T05:45:47.606Z,24.90
2023-02-15T05:48:17.281Z,25.40
2023-02-15T05:50:45.568Z,27.00
2023-02-15T05:53:13.918Z,26.23
2023-02-15T05:55:42.338Z,25.07
2023-02-15T05:58:10.655Z,24.07
2023-02-15T06:00:38.958Z,25.33
2023-02-15T06:03:07.239Z,25.07
2023-02-15T06:05:36.911Z,25.00
2023-02-15T06:08:06.113Z,26.07
2023-02-15T06:10:34.427Z,24.17
2023-02-15T06:13:02.634Z,24.73
2023-02-15T06:15:30.934Z,24.77
2023-02-15T06:17:59.326Z,23.20
2023-02-15T06:20:27.673Z,23.37
2023-02-15T06:22:57.315Z,23.93
2023-02-15T06:25:25.649Z,25.23
2023-02-15T06:27:53.922Z,25.40
2023-02-15T06:30:22.423Z,25.17
2023-02-15T06:32:50.643Z,23.67
2023-02-15T06:35:19.065Z,24.00
2023-02-15T06:37:47.806Z,24.03
2023-02-15T06:40:19.152Z,23.57
2023-02-15T06:42:47.406Z,24.30
2023-02-15T06:45:15.692Z,24.03
2023-02-15T06:47:43.925Z,23.57
2023-02-15T06:50:13.023Z,24.37
2023-02-15T06:52:41.249Z,24.87
2023-02-15T06:55:09.807Z,24.67
2023-02-15T06:57:39.481Z,25.67
2023-02-15T07:00:09.256Z,24.27
2023-02-15T07:02:37.691Z,26.07
2023-02-15T07:05:06.291Z,23.93
2023-02-15T07:07:34.693Z,24.07
2023-02-15T07:10:03.001Z,24.37
2023-02-15T07:12:47.149Z,23.00
2023-02-15T07:15:17.589Z,24.97
2023-02-15T07:17:45.852Z,23.50
2023-02-15T07:20:16.071Z,23.77
2023-02-15T07:22:44.327Z,24.20
2023-02-15T07:25:13.008Z,23.83
2023-02-15T07:27:41.379Z,24.43
2023-02-15T07:30:10.855Z,24.47
2023-02-15T07:33:01.114Z,23.17
2023-02-15T07:35:30.129Z,24.17
2023-02-15T07:37:58.431Z,24.53
2023-02-15T07:40:26.736Z,24.10
2023-02-15T07:42:55.973Z,25.20
2023-02-15T07:45:24.354Z,24.60
2023-02-15T07:47:53.955Z,24.43
2023-02-15T07:50:22.256Z,23.80
2023-02-15T07:52:50.704Z,25.57
2023-02-15T07:55:19.604Z,24.47
2023-02-15T07:57:48.288Z,24.50
2023-02-15T08:00:16.968Z,24.83
2023-02-15T08:02:45.307Z,25.63
2023-02-15T08:05:15.112Z,24.30
2023-02-15T08:07:43.332Z,24.37
2023-02-15T08:10:32.025Z,23.90
2023-02-15T08:13:00.231Z,22.70
2023-02-15T08:15:28.504Z,24.83
2023-02-15T08:17:56.756Z,23.70
2023-02-15T08:20:26.397Z,23.77
2023-02-15T08:22:54.678Z,25.00
2023-02-15T08:25:23.016Z,24.77
2023-02-15T08:27:52.030Z,25.63
2023-02-15T08:30:20.381Z,24.70
2023-02-15T08:32:48.686Z,25.40
2023-02-15T08:35:17.338Z,24.93
2023-02-15T08:37:47.598Z,24.87
2023-02-15T08:40:15.861Z,26.27
2023-02-15T08:42:44.137Z,23.27
2023-02-15T08:45:12.488Z,25.67
2023-02-15T08:47:40.722Z,21.60
2023-02-15T08:50:09.684Z,20.33
2023-02-15T08:52:37.919Z,22.73
2023-02-15T08:55:08.062Z,20.20
2023-02-15T08:57:36.401Z,20.53
2023-02-15T09:00:06.825Z,20.77
2023-02-15T09:02:35.123Z,21.40
2023-02-15T09:05:03.517Z,20.57
2023-02-15T09:07:31.722Z,19.30
2023-02-15T09:10:00.002Z,19.27
2023-02-15T09:12:29.629Z,18.60
2023-02-15T09:14:57.873Z,19.43
2023-02-15T09:17:26.341Z,17.63
2023-02-15T09:19:54.638Z,17.00
2023-02-15T09:22:22.904Z,19.30
2023-02-15T09:24:51.148Z,20.23
2023-02-15T09:27:22.093Z,19.33
2023-02-15T09:29:51.812Z,20.27
2023-02-15T09:32:20.112Z,19.77
2023-02-15T09:34:48.404Z,19.23
2023-02-15T09:37:16.621Z,15.63
2023-02-15T09:39:45.923Z,14.87
2023-02-15T09:42:24.332Z,15.47
2023-02-15T09:45:11.689Z,14.70
2023-02-15T09:48:05.850Z,15.13
2023-02-15T09:50:37.988Z,14.23
2023-02-15T09:53:16.009Z,14.97
2023-02-15T09:55:51.083Z,14.07
2023-02-15T09:58:23.931Z,15.33
2023-02-15T10:00:57.386Z,14.40
2023-02-15T10:03:43.333Z,15.87
2023-02-15T10:06:30.712Z,14.50
2023-02-15T10:09:09.885Z,14.30
2023-02-15T10:11:51.892Z,14.77
2023-02-15T10:14:39.978Z,14.17
2023-02-15T10:17:17.047Z,15.43
2023-02-15T10:19:47.097Z,14.03
2023-02-15T10:22:24.088Z,15.60
2023-02-15T10:25:08.217Z,13.97
2023-02-15T10:27:36.932Z,13.97
2023-02-15T10:30:08.754Z,14.93
2023-02-15T10:32:39.900Z,14.30
2023-02-15T10:35:13.324Z,16.53
2023-02-15T10:37:54.570Z,15.33
2023-02-15T10:40:27.964Z,15.07
2023-02-15T10:43:10.103Z,15.37
2023-02-15T10:45:45.582Z,13.53
2023-02-15T10:48:24.174Z,14.93
2023-02-15T10:50:52.856Z,15.17
2023-02-15T10:54:01.089Z,15.13
2023-02-15T10:56:36.070Z,16.37
2023-02-15T10:59:27.786Z,16.30
2023-02-15T11:01:57.771Z,16.37
2023-02-15T11:04:48.143Z,15.50
2023-02-15T11:07:19.393Z,15.80
2023-02-15T11:09:49.512Z,16.33
2023-02-15T11:12:19.668Z,16.03
2023-02-15T11:14:51.243Z,17.60
2023-02-15T11:17:20.778Z,17.50
2023-02-15T11:19:55.248Z,16.90
2023-02-15T11:22:23.500Z,17.10
2023-02-15T11:24:51.794Z,18.10
2023-02-15T11:27:22.012Z,16.67
2023-02-15T11:29:59.503Z,18.27
2023-02-15T11:32:28.726Z,18.13
2023-02-15T11:35:03.065Z,18.30
2023-02-15T11:37:34.357Z,18.87
2023-02-15T11:40:04.408Z,15.77
2023-02-15T11:42:32.648Z,15.27
2023-02-15T11:45:04.012Z,16.00
2023-02-15T11:47:32.236Z,15.90
2023-02-15T11:50:04.092Z,18.07
2023-02-15T11:52:32.403Z,16.83
2023-02-15T11:55:00.661Z,17.30
2023-02-15T11:57:32.255Z,15.47
2023-02-15T12:00:04.919Z,16.63
2023-02-15T12:02:34.162Z,15.37
2023-02-15T12:05:09.722Z,17.53
2023-02-15T12:07:39.090Z,18.80
2023-02-15T12:10:17.436Z,18.27
2023-02-15T12:12:45.870Z,16.87
2023-02-15T12:15:14.661Z,20.60
2023-02-15T12:17:43.948Z,21.17
2023-02-15T12:20:27.534Z,17.33
2023-02-15T12:22:56.867Z,17.40
2023-02-15T12:25:27.749Z,18.43
2023-02-15T12:27:56.033Z,26.40
2023-02-15T12:30:25.689Z,20.33
2023-02-15T12:32:54.752Z,19.83
2023-02-15T12:35:27.722Z,17.57
2023-02-15T12:37:57.174Z,17.93
2023-02-15T12:40:26.941Z,17.33
2023-02-15T12:42:55.160Z,17.27
2023-02-15T12:45:26.402Z,19.60
2023-02-15T12:48:18.063Z,15.53
2023-02-15T12:50:54.738Z,14.50
2023-02-15T12:53:24.616Z,17.17
2023-02-15T12:55:54.300Z,15.37
2023-02-15T12:58:24.492Z,15.10
2023-02-15T13:01:07.009Z,15.70
2023-02-15T13:03:35.286Z,14.17
2023-02-15T13:06:08.353Z,16.93
2023-02-15T13:08:38.037Z,19.33
2023-02-15T13:11:06.890Z,16.17
2023-02-15T13:13:36.552Z,16.50
2023-02-15T13:16:06.737Z,15.90
2023-02-15T13:18:36.416Z,15.80
2023-02-15T13:21:12.141Z,15.47
2023-02-15T13:23:40.436Z,14.83
2023-02-15T13:26:11.803Z,15.13
2023-02-15T13:28:42.043Z,16.23
2023-02-15T13:31:15.079Z,17.80
2023-02-15T13:33:45.030Z,15.80
2023-02-15T13:36:19.093Z,14.83
2023-02-15T13:38:54.618Z,14.83
2023-02-15T13:41:24.754Z,15.23
2023-02-15T13:43:57.725Z,19.17
2023-02-15T13:46:38.492Z,14.47
2023-02-15T13:49:14.561Z,13.73
2023-02-15T13:51:47.482Z,13.53
2023-02-15T13:54:35.376Z,14.90
2023-02-15T13:57:13.572Z,15.73
2023-02-15T13:59:48.555Z,13.67
2023-02-15T14:03:04.429Z,13.70
2023-02-15T14:05:43.574Z,14.70
2023-02-15T14:08:16.791Z,14.77
2023-02-15T14:10:47.820Z,15.07
2023-02-15T14:14:04.393Z,15.50
2023-02-15T14:16:38.605Z,14.20
2023-02-15T14:19:12.715Z,13.67
2023-02-15T14:21:43.645Z,12.23
2023-02-15T14:24:20.366Z,12.23
2023-02-15T14:26:51.803Z,12.03
2023-02-15T14:29:26.357Z,13.93
2023-02-15T14:31:56.521Z,13.47
2023-02-15T14:34:25.805Z,12.17
2023-02-15T14:36:54.343Z,12.50
2023-02-15T14:39:48.312Z,12.30
2023-02-15T14:42:20.511Z,13.00
2023-02-15T14:44:51.797Z,13.50
2023-02-15T14:47:21.648Z,14.57
2023-02-15T14:49:49.951Z,13.57
2023-02-15T14:52:18.400Z,14.60
2023-02-15T14:55:01.054Z,14.67
2023-02-15T14:57:35.940Z,13.43
2023-02-15T15:00:21.690Z,14.73
2023-02-15T15:02:51.028Z,14.63
2023-02-15T15:05:21.388Z,15.50
2023-02-15T15:07:50.997Z,15.40
2023-02-15T15:10:45.129Z,16.70
2023-02-15T15:13:52.859Z,17.43
2023-02-15T15:16:51.812Z,18.73
2023-02-15T15:20:05.616Z,17.83
2023-02-15T15:22:34.308Z,18.23
2023-02-15T15:25:02.695Z,17.83
2023-02-15T15:27:53.742Z,18.20
2023-02-15T15:31:04.407Z,18.20
2023-02-15T15:34:12.343Z,18.93
2023-02-15T15:37:14.216Z,17.40
2023-02-15T15:40:21.021Z,19.77
2023-02-15T15:42:59.913Z,20.63
2023-02-15T15:45:51.126Z,22.07
2023-02-15T15:48:35.709Z,21.63
2023-02-15T15:51:06.410Z,21.60
2023-02-15T15:53:42.348Z,22.70
2023-02-15T15:56:14.337Z,24.50
2023-02-15T15:58:47.082Z,23.57
2023-02-15T16:01:16.007Z,26.53
2023-02-15T16:03:51.302Z,25.07
2023-02-15T16:06:29.920Z,24.83
2023-02-15T16:08:58.172Z,24.83
2023-02-15T16:11:27.610Z,26.00
2023-02-15T16:13:57.243Z,25.30
2023-02-15T16:16:28.927Z,24.93
2023-02-15T16:18:58.787Z,25.83
2023-02-15T16:21:29.514Z,24.53
2023-02-15T16:24:08.498Z,24.53
2023-02-15T16:27:12.818Z,24.13
2023-02-15T16:29:42.444Z,25.90
2023-02-15T16:32:21.870Z,24.53
2023-02-15T16:34:56.960Z,25.63
2023-02-15T16:37:27.937Z,25.63
2023-02-15T16:39:56.373Z,24.67
2023-02-15T16:42:24.683Z,28.13
2023-02-15T16:44:56.440Z,28.10
2023-02-15T16:47:26.390Z,26.90
2023-02-15T16:49:55.765Z,26.73
2023-02-15T16:52:25.180Z,28.70
2023-02-15T16:54:56.873Z,29.33
2023-02-15T16:57:26.643Z,28.80
2023-02-15T16:59:57.562Z,29.00
2023-02-15T17:02:43.444Z,28.80
2023-02-15T17:05:18.717Z,29.03
2023-02-15T17:07:52.685Z,32.10
2023-02-15T17:10:28.925Z,33.53
2023-02-15T17:12:58.763Z,32.83
2023-02-15T17:15:29.831Z,33.90
2023-02-15T17:17:59.922Z,35.17
2023-02-15T17:20:28.156Z,30.77
2023-02-15T17:22:56.443Z,32.40
2023-02-15T17:25:28.290Z,32.90
2023-02-15T17:27:56.669Z,33.03
2023-02-15T17:30:30.429Z,33.43
2023-02-15T17:33:00.073Z,33.57
2023-02-15T17:35:29.481Z,37.77
2023-02-15T17:38:04.063Z,60.13
2023-02-15T17:40:32.945Z,96.47
2023-02-15T17:43:01.622Z,82.87
2023-02-15T17:45:35.438Z,62.23
2023-02-15T17:48:05.431Z,53.93
2023-02-15T17:50:33.885Z,45.90
2023-02-15T17:53:02.746Z,46.10
2023-02-15T17:55:35.823Z,48.23
2023-02-15T17:58:05.087Z,46.23
2023-02-15T18:00:53.653Z,46.80
2023-02-15T18:03:39.268Z,47.87
2023-02-15T18:06:25.727Z,45.27
2023-02-15T18:09:12.654Z,44.63
2023-02-15T18:11:41.106Z,39.17
2023-02-15T18:14:10.105Z,38.03
2023-02-15T18:16:41.769Z,34.03
2023-02-15T18:19:12.707Z,33.83
2023-02-15T18:21:40.982Z,30.73
2023-02-15T18:24:14.773Z,30.87
2023-02-15T18:26:43.005Z,31.47
2023-02-15T18:29:11.290Z,30.10
2023-02-15T18:31:41.077Z,30.20
2023-02-15T18:34:14.482Z,30.50
2023-02-15T18:36:45.201Z,31.87
2023-02-15T18:39:28.750Z,29.73
2023-02-15T18:41:57.433Z,31.23
2023-02-15T18:44:25.718Z,29.40
2023-02-15T18:46:55.364Z,32.30
2023-02-15T18:49:23.704Z,31.40
2023-02-15T18:51:52.117Z,32.03
2023-02-15T18:54:21.124Z,33.47
2023-02-15T18:56:53.143Z,33.90
2023-02-15T18:59:21.513Z,32.30
2023-02-15T19:01:49.763Z,31.60
2023-02-15T19:04:19.415Z,31.70
2023-02-15T19:06:48.710Z,33.53
2023-02-15T19:09:18.662Z,32.00
2023-02-15T19:11:49.897Z,31.33
2023-02-15T19:14:28.747Z,34.17
2023-02-15T19:16:57.520Z,34.57
2023-02-15T19:19:27.268Z,34.97
2023-02-15T19:21:55.555Z,33.60
2023-02-15T19:24:25.413Z,35.53
2023-02-15T19:26:53.729Z,33.57
2023-02-15T19:29:26.212Z,35.37
2023-02-15T19:31:54.674Z,35.40
2023-02-15T19:34:23.007Z,36.67
2023-02-15T19:36:53.716Z,34.27
2023-02-15T19:39:27.106Z,35.63
2023-02-15T19:41:55.468Z,35.53
2023-02-15T19:44:23.734Z,35.77
2023-02-15T19:46:51.986Z,35.63
2023-02-15T19:49:20.381Z,37.97
2023-02-15T19:51:48.741Z,36.47
2023-02-15T19:54:30.908Z,38.57
2023-02-15T19:56:59.242Z,38.03
2023-02-15T19:59:28.719Z,38.37
2023-02-15T20:01:57.073Z,37.87
2023-02-15T20:04:25.517Z,36.67
2023-02-15T20:06:55.563Z,37.60
2023-02-15T20:09:25.469Z,36.33
2023-02-15T20:11:55.305Z,35.93
2023-02-15T20:14:23.566Z,36.77
2023-02-15T20:16:51.877Z,36.10
2023-02-15T20:19:20.212Z,35.90
2023-02-15T20:21:51.970Z,35.07
2023-02-15T20:24:21.727Z,36.17
2023-02-15T20:26:50.030Z,37.73
2023-02-15T20:29:20.028Z,34.93
2023-02-15T20:31:48.492Z,38.03
2023-02-15T20:34:16.768Z,41.30
2023-02-15T20:36:45.082Z,39.47
2023-02-15T20:39:15.306Z,42.70
2023-02-15T20:41:47.898Z,43.87
2023-02-15T20:44:24.773Z,43.83
2023-02-15T20:46:54.058Z,45.50
2023-02-15T20:49:24.043Z,46.43
2023-02-15T20:51:52.657Z,46.53
2023-02-15T20:54:22.132Z,45.43
2023-02-15T20:56:50.533Z,45.87
2023-02-15T20:59:25.250Z,47.10
2023-02-15T21:01:55.735Z,44.63
2023-02-15T21:04:25.642Z,45.73
2023-02-15T21:06:54.025Z,46.03
2023-02-15T21:09:22.325Z,46.63
2023-02-15T21:11:51.206Z,46.27
2023-02-15T21:14:19.788Z,44.80
2023-02-15T21:16:49.560Z,46.23
2023-02-15T21:19:18.619Z,46.43
2023-02-15T21:21:47.094Z,45.03
2023-02-15T21:24:16.506Z,46.97
2023-02-15T21:26:46.545Z,47.60
2023-02-15T21:29:18.619Z,47.23
2023-02-15T21:31:48.511Z,48.60
2023-02-15T21:34:18.014Z,46.80
2023-02-15T21:36:46.543Z,49.63
2023-02-15T21:39:16.831Z,50.03
2023-02-15T21:42:04.523Z,47.83
2023-02-15T21:44:49.972Z,48.73
2023-02-15T21:47:38.433Z,52.07
2023-02-15T21:50:21.652Z,51.27
2023-02-15T21:52:49.918Z,51.47
2023-02-15T21:55:18.323Z,52.07
2023-02-15T21:57:46.627Z,49.73
2023-02-15T22:00:17.653Z,52.87
2023-02-15T22:02:48.421Z,52.30
2023-02-15T22:05:17.767Z,51.83
2023-02-15T22:07:46.063Z,49.27
2023-02-15T22:10:14.378Z,49.63
2023-02-15T22:12:43.367Z,50.50
2023-02-15T22:15:19.636Z,50.50
2023-02-15T22:17:49.718Z,49.03
2023-02-15T22:20:19.340Z,48.67
2023-02-15T22:22:47.844Z,47.00
2023-02-15T22:25:16.409Z,45.77
2023-02-15T22:27:44.968Z,46.87
2023-02-15T22:30:21.207Z,45.37
2023-02-15T22:32:51.004Z,47.67
2023-02-15T22:35:20.485Z,44.30
2023-02-15T22:37:48.711Z,44.83
2023-02-15T22:40:17.308Z,49.67
2023-02-15T22:42:47.259Z,46.50
2023-02-15T22:45:19.592Z,48.03
2023-02-15T22:47:48.253Z,50.90
2023-02-15T22:50:18.887Z,49.00
2023-02-15T22:52:47.130Z,51.27
2023-02-15T22:55:17.045Z,48.73
2023-02-15T22:57:45.507Z,50.37
2023-02-15T23:00:17.446Z,51.63
2023-02-15T23:02:45.678Z,45.53
2023-02-15T23:05:22.275Z,46.73
2023-02-15T23:07:50.569Z,46.77
2023-02-15T23:10:22.334Z,45.53
2023-02-15T23:13:08.231Z,45.87
2023-02-15T23:15:36.728Z,45.20
2023-02-15T23:18:13.300Z,45.90
2023-02-15T23:20:43.042Z,47.63
2023-02-15T23:23:12.618Z,46.00
2023-02-15T23:25:41.054Z,44.03
2023-02-15T23:28:24.555Z,41.80
2023-02-15T23:30:52.837Z,39.23
2023-02-15T23:33:22.122Z,40.20
2023-02-15T23:35:51.960Z,37.73
2023-02-15T23:38:24.970Z,39.13
2023-02-15T23:41:13.027Z,35.77
2023-02-15T23:43:41.564Z,37.67
2023-02-15T23:46:09.912Z,36.40
2023-02-15T23:48:39.311Z,35.47
2023-02-15T23:51:11.373Z,34.40
2023-02-15T23:53:39.776Z,34.80
2023-02-15T23:56:08.275Z,38.47
2023-02-15T23:58:37.799Z,37.10
